Airfield :







YOU CAN JOIN US ON...

 
LOGIN :

Register | Disclaimer

   EN    FR    IT 

 









Legend :    VFR   Marginal VFR   IFR   Intensive IFR   Very Intensive IFR
Visi :
Ceiling :
>= 8 km
>= 3000ft
5 to 8 km
1000 to 3000 ft
1500m to 5 km
500 to 1000 ft
800 to 1500m
200 to 500 ft
< 800m
< 200 ft
Symbols :   Thunderstorms  Fog  Heavy snow  Heavy precipitations  Wind > 20 kt







- Airport Elevation : 68 ft
- IATA code : YFC


CYFC - Fredericton

CURRENT METAR :
  • 211023Z AUTO 17002KT 9SM CLR 12/12 A3006 RMK SLP180

EXPIRED METARs :
  • 211011Z AUTO VRB02KT 1/2SM R09/P6000FT/D FG CLR 11/10 A3005 RMK SLP177
  • 210900Z AUTO 27005KT 9SM CLR 15/13 A3001 RMK SLP164
  • 210800Z AUTO 30005KT 9SM CLR 16/14 A2999 RMK SLP158

TAF TAF CYFC
Valid from the 21 at 06:00 until the 21 at 18:00 UTC


210538Z 2106/2118 28007KT P6SM SCT040
BECMG 2109/2111 35008KT
FM211100 35008KT P6SM SKC
BECMG 2116/2118 32008KT RMK FCST BASED ON AUTO OBS. NXT FCST BY 211200Z
No reported NOTAMs for that airfield.



MET'MAP, your aeronautical weather chart ! - Copyright ORBIFLY December 2007 - Disclaimer

ORBIFLY MET'MAP TEAM :

Programming & Development : Alexandra Zaïnal
Concept & Development : Baudouin d'Aumeries
Co-Development & Prog : Marc-Olivier Méhu
Technical & hardware support : Manuel Goepfert

Contact : metmap@orbifly.com




SOURCES & CREDITS :

   NOAA